This is the latest recevied weather packets stored in our database for station/object EA5JMY-10. If no packets are shown the sender has not sent any weather packets the latest 10 day(s).
| Time | Temp. | Humidity | Pressure | Rain* | Wind** | Luminosity | Snow |
|---|---|---|---|---|---|---|---|
| 1777316711 | 18.89° C | 60% | 1018.5 hPa | - | - | - | - |
| 1777315811 | 19.44° C | 59% | 1018.6 hPa | - | - | - | - |
| 1777314911 | 20° C | 60% | 1018.5 hPa | - | - | - | - |
| 1777314011 | 20° C | 61% | 1018.3 hPa | - | - | - | - |
| 1777313111 | 20.56° C | 59% | 1018.4 hPa | - | - | - | - |
| 1777312210 | 20.56° C | 59% | 1018.4 hPa | - | - | - | - |
| 1777311311 | 20.56° C | 56% | 1018.3 hPa | - | - | - | - |
| 1777310410 | 21.11° C | 55% | 1018.4 hPa | - | - | - | - |
| 1777309510 | 21.67° C | 53% | 1018.3 hPa | - | - | - | - |
| 1777308610 | 21.11° C | 55% | 1018.4 hPa | - | - | - | - |
| 1777307710 | 22.22° C | 52% | 1018.5 hPa | - | - | - | - |
| 1777306810 | 21.67° C | 52% | 1018.6 hPa | - | - | - | - |
| 1777305910 | 22.22° C | 50% | 1018.7 hPa | - | - | - | - |
| 1777305010 | 21.67° C | 52% | 1018.7 hPa | - | - | - | - |
| 1777304109 | 21.67° C | 54% | 1019 hPa | - | - | - | - |
| 1777303209 | 21.67° C | 55% | 1019 hPa | - | - | - | - |
| 1777302309 | 22.22° C | 53% | 1019.1 hPa | - | - | - | - |
| 1777301409 | 22.22° C | 53% | 1019.3 hPa | - | - | - | - |
| 1777300509 | 21.67° C | 53% | 1019.6 hPa | - | - | - | - |
| 1777299609 | 22.78° C | 51% | 1019.6 hPa | - | - | - | - |
| 1777298709 | 22.78° C | 51% | 1019.8 hPa | - | - | - | - |
| 1777297809 | 21.67° C | 54% | 1020 hPa | - | - | - | - |
| 1777296909 | 22.22° C | 52% | 1020.1 hPa | - | - | - | - |
| 1777296008 | 22.78° C | 48% | 1020.1 hPa | - | - | - | - |
| 1777295108 | 22.78° C | 49% | 1020.3 hPa | - | - | - | - |
* Rain since midnight (hover to see other rain measurements)
** Current wind speed in m/s (hover to see current wind gust speed)